KHBV

Jim Hogg County Airport

Hebbronville, Texas, USA
METAR KHBV 170330Z AUTO 35006KT 7SM OVC008 10/09 A3023 RMK AO2 T01020093
Observed Flight Rules
Oct-17 @ 03:30 UTC (35 minutes ago) Instrument Flight Rules
Wind Visibility Clouds
350° at 6 knots 7 miles
  • Overcast at 800' AGL
Temperatures Readings
Current 10°C / 50°F
Dewpoint 9°C / 48°F
Humidity 94%
Altimeter 30.23" Hg
Pressure 1024 hPa
Elevation 202
METAR KHBV 170330Z AUTO 35006KT 7SM OVC008 10/09 A3023 RMK AO2 T01020093
Observed Flight Rules
Oct-17 @ 03:30 UTC
(35 minutes ago)
IFR
Wind Visibility
350° at 6 knots 7 miles
Clouds
  • Overcast at 800' AGL
Temperature Dewpoint
10°C / 50°F 9°C / 48°F
Humidity Altimeter Pressure
94% 30.23" Hg 1024 hPa